Pagina principale
METAR-TAF:

METAR-TAF

Aeroporti :

Aeroporto di Parma

Parma, Italia

latitudine: 44-49-17N, longitudine: 010-17-41E, altezza: 50 m

Osservazione

Il bollettino è stato emesso 1 ora e 9 minuti fa, alle 12:50 UTC
Vento 3 kt da direzioni variabili
Temperature 23°C
Umidità 69%
Pressione 1017 hPa
Visibilità: 7000 m
Nubi sparse ad un'altezza di 3000 ft

METAR: LIMP 271250Z VRB03KT 7000 SCT030 23/17 Q1017

Ora: 15:59 (13:59 UTC)

Previsione

Il bollettino è stato emesso 2 ore e 59 minuti fa, alle 11:00 UTC
Previsione valida dal 27 alle 12 UTC al 28 alle 12 UTC
Vento 5 kt da direzioni variabili
Visibilità 10 km o più
Nubi sparse ad un'altezza di 2000 ft

TAF: LIMP 271100Z 2712/2812 VRB05KT 9999 SCT020

Osservazioni e previsioni meteorologiche di più di 4000 aeroporti (messaggi METAR e TAF).

Le stazioni disponibili sono rappresentate dai dischi gialli e rossi sulla carta.

Puntare il mouse per vedere il nome della stazione.

Clicca sopra per visualizzare le osservazioni e previsioni meteorologiche.

Per cambiare la mappa : fare clic sui pulsanti verdi con una croce nera per ingrandire, il pulsante verde con un trattino per diminuire, o sulla freccia verde per le mappe adiacenti.


METAR-TAF: